Airfield :
LOGIN :

Register | Disclaimer

   EN    FR    IT 

 










Legend :    VFR   Marginal VFR   IFR   Intensive IFR   Very Intensive IFR
Visi :
Ceiling :
>= 8 km
>= 3000ft
5 to 8 km
1000 to 3000 ft
1500m to 5 km
500 to 1000 ft
800 to 1500m
200 to 500 ft
< 800m
< 200 ft
Symbols :   Thunderstorms  Fog  Heavy snow  Heavy precipitations  Wind > 20 kt
SIGMETs :     Misc.  Thunderstorms  Icing  Turbulence  Mountain Waves  Volcanic Ashes







- Airport Elevation : 18 ft


LIPC - Cervia AFB Ravenna

CURRENT METAR :
  • 252055Z 00000KT CAVOK 12/11 Q1017 RMK BKN BKN090 VIS MIN 9999 WIND THR11 00000KT WIND THR29 00000KT BLU

EXPIRED METARs :
  • 251955Z 00000KT CAVOK 13/11 Q1017
  • 251855Z 13003KT CAVOK 12/10 Q1017

TAF TAF LIPC
Valid from the 25 at 21:00 until the 26 at 06:00 UTC


252000Z 2521/2606 12006KT 7000 FEW020 SCT080
TEMPO 2521/2603 3000 SHRA FEW015CB BKN025
No reported NOTAMs for that airfield.
1 SIGMET reported for the Milano FIR (LIMM) :
 
Embedded thunderstorms
LIMM SIGMET 4 VALID 252115/252315 LIMM- LIMM MILANO FIR EMBD TS OBS WI N4605 E00806 - N4553 E00748 - N4506 E00836 - N4431 E01030 - N4453 E01105 - N4600 E00858 - N4551 E00855 - N4605 E00847 - N4617 E00826 - N4627 E00825 - N4617 E00810 - N4605 E00806 CB TOP AT FL280 STNR NC=



MET'MAP, your aeronautical weather chart ! - Copyright ORBIFLY December 2007 - Disclaimer

ORBIFLY MET'MAP TEAM :

Programming & Development : Alexandra Zaïnal
Concept & Development : Baudouin d'Aumeries
Co-Development & Prog : Marc-Olivier Méhu
Technical & hardware support : Manuel Goepfert

Contact : metmap@orbifly.com




SOURCES & CREDITS :

   NOAA